createdAt,value
2022-10-06T00:06:09.989Z,0
2022-10-06T00:15:47.054Z,0
2022-10-06T00:25:23.746Z,0
2022-10-06T00:44:37.289Z,0
2022-10-06T00:54:14.125Z,0
2022-10-06T01:03:51.050Z,0
2022-10-06T01:23:05.838Z,0
2022-10-06T01:32:42.728Z,0
2022-10-06T01:42:19.140Z,0
2022-10-06T02:01:33.402Z,0
2022-10-06T02:20:47.683Z,0
2022-10-06T02:40:02.274Z,0
2022-10-06T02:49:38.888Z,0
2022-10-06T02:59:16.040Z,0
2022-10-06T03:08:52.878Z,0
2022-10-06T03:18:29.225Z,0
2022-10-06T03:37:44.406Z,0
2022-10-06T03:47:22.198Z,0
2022-10-06T03:57:00.085Z,0
2022-10-06T04:06:37.351Z,0
2022-10-06T04:16:14.946Z,0
2022-10-06T04:25:55.916Z,0
2022-10-06T04:35:31.117Z,0
2022-10-06T04:45:09.015Z,0
2022-10-06T04:54:46.347Z,0
2022-10-06T05:13:58.766Z,0
2022-10-06T05:23:35.668Z,0
2022-10-06T05:33:12.474Z,0
2022-10-06T05:42:49.369Z,0
2022-10-06T05:52:26.848Z,0
2022-10-06T06:11:41.217Z,0
2022-10-06T06:30:55.815Z,0
2022-10-06T06:40:33.098Z,0
2022-10-06T06:50:10.580Z,0
2022-10-06T06:59:46.971Z,0
2022-10-06T07:09:23.155Z,0
2022-10-06T07:18:59.473Z,0
2022-10-06T07:47:52.392Z,0
2022-10-06T07:57:29.672Z,0
2022-10-06T08:07:06.619Z,0
2022-10-06T08:16:44.524Z,0
2022-10-06T08:26:22.022Z,0
2022-10-06T08:35:59.653Z,0
2022-10-06T08:45:38.802Z,0
2022-10-06T08:55:15.096Z,0
2022-10-06T09:04:52.633Z,0
2022-10-06T09:14:29.854Z,0
2022-10-06T09:24:07.562Z,0
2022-10-06T09:33:45.968Z,0
2022-10-06T09:43:24.574Z,0
2022-10-06T09:53:01.682Z,0
2022-10-06T10:02:40.055Z,1
2022-10-06T10:12:17.540Z,1
2022-10-06T10:21:55.575Z,4
2022-10-06T10:42:04.089Z,6
2022-10-06T11:01:27.687Z,7
2022-10-06T11:11:08.305Z,9
2022-10-06T11:20:47.404Z,7
2022-10-06T11:40:07.725Z,7
2022-10-06T11:59:25.366Z,6
2022-10-06T12:57:26.321Z,7
2022-10-06T13:07:07.679Z,5
2022-10-06T13:16:31.796Z,4
2022-10-06T13:35:45.386Z,4
2022-10-06T13:45:28.106Z,5
2022-10-06T13:55:00.034Z,3
2022-10-06T14:14:24.120Z,4
2022-10-06T14:23:57.551Z,4
2022-10-06T14:33:49.204Z,5
2022-10-06T14:52:59.976Z,4
2022-10-06T15:11:59.568Z,1
2022-10-06T15:21:27.296Z,1
2022-10-06T15:30:53.861Z,0
2022-10-06T15:50:00.076Z,0
2022-10-06T15:59:34.969Z,0
2022-10-06T16:09:10.280Z,0
2022-10-06T16:18:45.905Z,0
2022-10-06T16:28:21.170Z,0
2022-10-06T16:37:57.143Z,0
2022-10-06T16:47:33.153Z,0
2022-10-06T17:06:46.003Z,0
2022-10-06T17:16:21.619Z,0
2022-10-06T17:45:10.374Z,0
2022-10-06T17:54:47.078Z,0
2022-10-06T18:04:23.385Z,0
2022-10-06T18:13:59.911Z,0
2022-10-06T18:23:36.138Z,0
2022-10-06T18:42:49.182Z,0
2022-10-06T18:52:25.717Z,0
2022-10-06T19:02:01.999Z,0
2022-10-06T19:21:15.085Z,0
2022-10-06T19:30:51.311Z,0
2022-10-06T19:40:27.952Z,0
2022-10-06T19:50:11.508Z,0
2022-10-06T19:59:41.934Z,0
2022-10-06T20:09:18.532Z,0
2022-10-06T20:18:55.577Z,0
2022-10-06T20:28:33.393Z,0
2022-10-06T20:38:08.442Z,0
2022-10-06T20:47:45.347Z,0
2022-10-06T20:57:21.608Z,0
2022-10-06T21:06:58.458Z,0
2022-10-06T21:16:34.588Z,0
2022-10-06T21:35:48.262Z,0
2022-10-06T21:45:27.531Z,0
2022-10-06T21:55:01.733Z,0
2022-10-06T22:04:38.584Z,0
2022-10-06T22:14:15.694Z,0
2022-10-06T22:23:52.074Z,0
2022-10-06T22:33:28.765Z,0
2022-10-06T22:43:05.523Z,0
2022-10-06T22:52:42.291Z,0
2022-10-06T23:21:32.740Z,0
2022-10-06T23:31:10.150Z,0
2022-10-06T23:50:23.485Z,0
2022-10-06T23:59:59.730Z,0
